createdAt,value
2019-03-31T00:00:01.474Z,45.43
2019-03-31T00:00:27.476Z,45.43
2019-03-31T00:00:53.479Z,45.43
2019-03-31T00:01:19.924Z,45.44
2019-03-31T00:01:45.490Z,45.45
2019-03-31T00:02:11.541Z,45.44
2019-03-31T00:02:37.482Z,45.44
2019-03-31T00:03:03.482Z,45.45
2019-03-31T00:03:29.476Z,45.45
2019-03-31T00:03:55.477Z,45.45
2019-03-31T00:04:21.495Z,45.46
2019-03-31T00:04:47.567Z,45.47
2019-03-31T00:05:13.483Z,45.48
2019-03-31T00:05:39.485Z,45.49
2019-03-31T00:06:05.486Z,45.47
2019-03-31T00:06:31.487Z,45.47
2019-03-31T00:06:57.484Z,45.47
2019-03-31T00:07:23.497Z,45.47
2019-03-31T00:07:49.559Z,45.48
2019-03-31T00:08:15.478Z,45.48
2019-03-31T00:08:41.483Z,45.47
2019-03-31T00:09:07.491Z,45.47
2019-03-31T00:09:33.488Z,45.49
2019-03-31T00:09:59.491Z,45.49
2019-03-31T00:10:25.560Z,45.5
2019-03-31T00:10:51.487Z,45.49
2019-03-31T00:11:17.490Z,45.51
2019-03-31T00:11:43.491Z,45.52
2019-03-31T00:12:09.493Z,45.52
2019-03-31T00:12:35.508Z,45.52
2019-03-31T00:13:01.485Z,45.54
2019-03-31T00:13:27.568Z,45.51
2019-03-31T00:13:53.493Z,45.5
2019-03-31T00:14:19.502Z,45.54
2019-03-31T00:14:45.497Z,45.53
2019-03-31T00:15:11.499Z,45.55
2019-03-31T00:15:37.509Z,45.53
2019-03-31T00:16:03.584Z,45.56
2019-03-31T00:16:29.494Z,45.56
2019-03-31T00:16:55.499Z,45.55
2019-03-31T00:17:21.502Z,45.58
2019-03-31T00:17:47.495Z,45.58
2019-03-31T00:18:13.497Z,45.57
2019-03-31T00:18:39.499Z,45.56
2019-03-31T00:19:05.501Z,45.58
2019-03-31T00:19:31.499Z,45.57
2019-03-31T00:19:57.505Z,45.59
2019-03-31T00:20:23.507Z,45.58
2019-03-31T00:20:49.505Z,45.58
2019-03-31T00:21:15.503Z,45.58
2019-03-31T00:21:41.505Z,45.58
2019-03-31T00:22:07.509Z,45.59
2019-03-31T00:22:33.503Z,45.61
2019-03-31T00:22:59.513Z,45.62
2019-03-31T00:23:25.505Z,45.62
2019-03-31T00:23:51.505Z,45.63
2019-03-31T00:24:17.506Z,45.59
2019-03-31T00:24:43.513Z,45.61
2019-03-31T00:25:09.512Z,45.64
2019-03-31T00:25:35.514Z,45.62
2019-03-31T00:26:01.512Z,45.62
2019-03-31T00:26:27.516Z,45.63
2019-03-31T00:26:53.514Z,45.61
2019-03-31T00:27:19.510Z,45.64
2019-03-31T00:27:45.511Z,45.65
2019-03-31T00:28:11.516Z,45.64
2019-03-31T00:28:37.516Z,45.64
2019-03-31T00:29:03.513Z,45.63
2019-03-31T00:29:29.590Z,45.62
2019-03-31T00:29:55.514Z,45.6
2019-03-31T00:30:21.514Z,45.62
2019-03-31T00:30:47.517Z,45.64
2019-03-31T00:31:13.524Z,45.63
2019-03-31T00:31:39.532Z,45.66
2019-03-31T00:32:05.590Z,45.67
2019-03-31T00:32:31.519Z,45.66
2019-03-31T00:32:57.526Z,45.66
2019-03-31T00:33:23.522Z,45.67
2019-03-31T00:33:49.528Z,45.69
2019-03-31T00:34:15.531Z,45.67
2019-03-31T00:34:41.598Z,45.66
2019-03-31T00:35:07.526Z,45.66
2019-03-31T00:35:33.524Z,45.66
2019-03-31T00:35:59.530Z,45.65
2019-03-31T00:36:25.528Z,45.66
2019-03-31T00:36:51.532Z,45.67
2019-03-31T00:37:17.605Z,45.66
2019-03-31T00:37:43.533Z,45.68
2019-03-31T00:38:09.528Z,45.7
2019-03-31T00:38:35.708Z,45.69
2019-03-31T00:39:01.562Z,45.67
2019-03-31T00:39:27.545Z,45.7
2019-03-31T00:39:53.610Z,45.7
2019-03-31T00:40:19.531Z,45.67
2019-03-31T00:40:45.533Z,45.67
2019-03-31T00:41:11.535Z,45.67
2019-03-31T00:41:37.533Z,45.68
2019-03-31T00:42:03.543Z,45.7
2019-03-31T00:42:29.613Z,45.71
2019-03-31T00:42:55.530Z,45.72
2019-03-31T00:43:21.973Z,45.73
2019-03-31T00:43:47.539Z,45.71
2019-03-31T00:44:13.544Z,45.72
2019-03-31T00:44:39.548Z,45.71
2019-03-31T00:45:05.610Z,45.72
2019-03-31T00:45:31.541Z,45.72
2019-03-31T00:45:57.546Z,45.74
2019-03-31T00:46:23.553Z,45.75
2019-03-31T00:46:49.542Z,45.75
2019-03-31T00:47:15.549Z,45.73
2019-03-31T00:47:41.634Z,45.71
2019-03-31T00:48:07.546Z,45.74
2019-03-31T00:48:33.545Z,45.73
2019-03-31T00:48:59.545Z,45.77
2019-03-31T00:49:25.546Z,45.75
2019-03-31T00:49:51.552Z,45.75
2019-03-31T00:50:17.627Z,45.75
2019-03-31T00:50:43.549Z,45.77
2019-03-31T00:51:09.544Z,45.75
2019-03-31T00:51:35.550Z,45.76
2019-03-31T00:52:01.551Z,45.76
2019-03-31T00:52:27.556Z,45.76
2019-03-31T00:52:53.623Z,45.77
2019-03-31T00:53:19.549Z,45.78
2019-03-31T00:53:45.551Z,45.78
2019-03-31T00:54:11.548Z,45.77
2019-03-31T00:54:37.553Z,45.79
2019-03-31T00:55:03.714Z,45.81
2019-03-31T00:55:29.627Z,45.8
2019-03-31T00:55:55.547Z,45.8
2019-03-31T00:56:21.554Z,45.8
2019-03-31T00:56:47.559Z,45.8
2019-03-31T00:57:13.556Z,45.8
2019-03-31T00:57:39.564Z,45.82
2019-03-31T00:58:05.643Z,45.83
2019-03-31T00:58:31.554Z,45.82
2019-03-31T00:58:57.559Z,45.84
2019-03-31T00:59:23.559Z,45.83
2019-03-31T00:59:49.562Z,45.84
2019-03-31T01:00:15.555Z,45.82
2019-03-31T01:00:41.555Z,45.81
2019-03-31T01:01:07.708Z,45.83
2019-03-31T01:01:34.138Z,45.84
2019-03-31T01:01:59.563Z,45.85
2019-03-31T01:02:25.561Z,45.85
2019-03-31T01:02:51.567Z,45.85
2019-03-31T01:03:17.562Z,45.86
2019-03-31T01:03:43.641Z,45.85
2019-03-31T01:04:09.566Z,45.86
2019-03-31T01:04:35.568Z,45.87
2019-03-31T01:05:01.568Z,45.87
2019-03-31T01:05:27.562Z,45.87
2019-03-31T01:05:53.579Z,45.89
2019-03-31T01:06:19.643Z,45.88
2019-03-31T01:06:45.566Z,45.88
2019-03-31T01:07:11.568Z,45.89
2019-03-31T01:07:37.574Z,45.87
2019-03-31T01:08:03.577Z,45.85
2019-03-31T01:08:29.581Z,45.86
2019-03-31T01:08:55.646Z,45.89
2019-03-31T01:09:21.576Z,45.89
2019-03-31T01:09:47.580Z,45.9
2019-03-31T01:10:13.569Z,45.91
2019-03-31T01:10:39.576Z,45.91
2019-03-31T01:11:05.586Z,45.91
2019-03-31T01:11:31.647Z,45.9
2019-03-31T01:11:57.577Z,45.92
2019-03-31T01:12:23.580Z,45.92
2019-03-31T01:12:49.596Z,45.91
2019-03-31T01:13:15.577Z,45.91
2019-03-31T01:13:41.590Z,45.92
2019-03-31T01:14:07.653Z,45.9
2019-03-31T01:14:33.589Z,45.91
2019-03-31T01:14:59.577Z,45.93
2019-03-31T01:15:25.580Z,45.92
2019-03-31T01:15:51.585Z,45.95
2019-03-31T01:16:17.606Z,45.94
2019-03-31T01:16:43.656Z,45.94
2019-03-31T01:17:09.580Z,45.94
2019-03-31T01:17:35.589Z,45.94
2019-03-31T01:18:01.584Z,45.93
2019-03-31T01:18:27.592Z,45.94
2019-03-31T01:18:53.593Z,45.94
2019-03-31T01:19:19.658Z,45.94
2019-03-31T01:19:45.587Z,45.93
2019-03-31T01:20:11.586Z,45.95
2019-03-31T01:20:37.590Z,45.96
2019-03-31T01:21:03.593Z,45.96
2019-03-31T01:21:29.595Z,45.97
2019-03-31T01:21:55.662Z,45.97
2019-03-31T01:22:21.591Z,45.97
2019-03-31T01:22:47.590Z,45.98
2019-03-31T01:23:13.597Z,45.96
2019-03-31T01:23:39.597Z,45.96
2019-03-31T01:24:05.615Z,45.94
2019-03-31T01:24:31.660Z,45.96
2019-03-31T01:24:57.598Z,45.96
2019-03-31T01:25:23.596Z,45.97
2019-03-31T01:25:49.594Z,45.97
2019-03-31T01:26:15.593Z,45.96
2019-03-31T01:26:43.356Z,45.96
2019-03-31T01:27:07.679Z,45.97
2019-03-31T01:27:33.600Z,45.97
2019-03-31T01:27:59.602Z,45.97
2019-03-31T01:28:25.603Z,45.96
2019-03-31T01:28:51.608Z,45.97
2019-03-31T01:29:17.605Z,45.98
2019-03-31T01:29:43.676Z,45.98
2019-03-31T01:30:09.599Z,45.97
2019-03-31T01:30:35.602Z,45.97
2019-03-31T01:31:01.603Z,45.98
2019-03-31T01:31:27.603Z,45.98
2019-03-31T01:31:53.610Z,45.98
2019-03-31T01:32:19.602Z,45.99
2019-03-31T01:32:45.607Z,45.97
2019-03-31T01:33:11.604Z,45.98
2019-03-31T01:33:37.605Z,45.97
2019-03-31T01:34:03.602Z,45.98
2019-03-31T01:34:29.608Z,45.98
2019-03-31T01:34:55.608Z,45.99
2019-03-31T01:35:21.617Z,46
2019-03-31T01:35:47.610Z,45.98
2019-03-31T01:36:13.610Z,46
2019-03-31T01:36:39.616Z,46.01
2019-03-31T01:37:05.612Z,46.01
2019-03-31T01:37:31.636Z,46.03
2019-03-31T01:37:57.615Z,46.02
2019-03-31T01:38:23.617Z,46.01
2019-03-31T01:38:49.625Z,46.02
2019-03-31T01:39:15.616Z,46.03
2019-03-31T01:39:41.619Z,46.03
2019-03-31T01:40:07.617Z,46.02
2019-03-31T01:40:33.614Z,46.03
2019-03-31T01:40:59.621Z,46.02
2019-03-31T01:41:25.617Z,46.01
2019-03-31T01:41:51.617Z,46.02
2019-03-31T01:42:17.621Z,46.04
2019-03-31T01:42:43.619Z,46.03
2019-03-31T01:43:09.611Z,46.03
2019-03-31T01:43:35.614Z,46.04
2019-03-31T01:44:01.624Z,46.05
2019-03-31T01:44:27.628Z,46.04
2019-03-31T01:44:53.621Z,46.06
2019-03-31T01:45:19.621Z,46.05
2019-03-31T01:45:45.621Z,46.04
2019-03-31T01:46:11.621Z,46.05
2019-03-31T01:46:37.624Z,46.05
2019-03-31T01:47:03.625Z,46.05
2019-03-31T01:47:29.629Z,46.06
2019-03-31T01:47:55.618Z,46.06
2019-03-31T01:48:21.626Z,46.06
2019-03-31T01:48:47.634Z,46.06
2019-03-31T01:49:13.630Z,46.07
2019-03-31T01:49:39.633Z,46.08
2019-03-31T01:50:05.636Z,46.07
2019-03-31T01:50:31.628Z,46.09
2019-03-31T01:50:57.639Z,46.08
2019-03-31T01:51:23.630Z,46.07
2019-03-31T01:51:49.636Z,46.07
2019-03-31T01:52:15.635Z,46.07
2019-03-31T01:52:41.631Z,46.08
2019-03-31T01:53:07.630Z,46.06
2019-03-31T01:53:33.630Z,46.06
2019-03-31T01:53:59.641Z,46.07
2019-03-31T01:54:25.634Z,46.06
2019-03-31T01:54:51.637Z,46.07
2019-03-31T01:55:17.637Z,46.06
2019-03-31T01:55:43.638Z,46.06
2019-03-31T01:56:09.636Z,46.09
2019-03-31T01:56:35.637Z,46.08
2019-03-31T01:57:01.641Z,46.1
2019-03-31T01:57:27.636Z,46.08
2019-03-31T01:57:53.637Z,46.09
2019-03-31T01:58:19.644Z,46.09
2019-03-31T01:58:45.640Z,46.09
2019-03-31T01:59:11.639Z,46.09
2019-03-31T01:59:37.645Z,46.09
2019-03-31T02:00:03.647Z,46.09
2019-03-31T02:00:29.645Z,46.09
2019-03-31T02:00:55.640Z,46.1
2019-03-31T02:01:21.776Z,46.1
2019-03-31T02:01:47.649Z,46.1
2019-03-31T02:02:13.644Z,46.11
2019-03-31T02:02:39.680Z,46.11
2019-03-31T02:03:05.647Z,46.1
2019-03-31T02:03:31.685Z,46.11
2019-03-31T02:03:57.651Z,46.11
2019-03-31T02:04:23.651Z,46.11
2019-03-31T02:04:49.656Z,46.1
2019-03-31T02:05:15.653Z,46.1
2019-03-31T02:05:41.651Z,46.12
2019-03-31T02:06:07.656Z,46.12
2019-03-31T02:06:33.654Z,46.12
2019-03-31T02:06:59.654Z,46.12
2019-03-31T02:07:25.652Z,46.13
2019-03-31T02:07:51.658Z,46.12
2019-03-31T02:08:17.658Z,46.13
2019-03-31T02:08:43.652Z,46.13
2019-03-31T02:09:09.657Z,46.12
2019-03-31T02:09:35.658Z,46.13
2019-03-31T02:10:01.687Z,46.13
2019-03-31T02:10:27.659Z,46.13
2019-03-31T02:10:53.661Z,46.14
2019-03-31T02:11:19.660Z,46.14
2019-03-31T02:11:45.697Z,46.13
2019-03-31T02:12:11.656Z,46.13
2019-03-31T02:12:37.660Z,46.13
2019-03-31T02:13:03.665Z,46.14
2019-03-31T02:13:29.662Z,46.14
2019-03-31T02:13:55.665Z,46.14
2019-03-31T02:14:21.660Z,46.13
2019-03-31T02:14:47.666Z,46.13
2019-03-31T02:15:13.661Z,46.13
2019-03-31T02:15:39.667Z,46.13
2019-03-31T02:16:05.670Z,46.13
2019-03-31T02:16:31.660Z,46.12
2019-03-31T02:16:57.667Z,46.12
2019-03-31T02:17:23.666Z,46.12
2019-03-31T02:17:49.675Z,46.13
2019-03-31T02:18:15.669Z,46.13
2019-03-31T02:18:41.671Z,46.14
2019-03-31T02:19:07.673Z,46.14
2019-03-31T02:19:33.670Z,46.13
2019-03-31T02:19:59.672Z,46.13
2019-03-31T02:20:25.673Z,46.14
2019-03-31T02:20:51.683Z,46.13
2019-03-31T02:21:17.669Z,46.13
2019-03-31T02:21:43.670Z,46.14
2019-03-31T02:22:09.670Z,46.14
2019-03-31T02:22:35.670Z,46.14
2019-03-31T02:23:01.682Z,46.14
2019-03-31T02:23:27.676Z,46.14
2019-03-31T02:23:53.684Z,46.13
2019-03-31T02:24:19.673Z,46.14
2019-03-31T02:24:45.678Z,46.15
2019-03-31T02:25:11.675Z,46.16
2019-03-31T02:25:37.681Z,46.16
2019-03-31T02:26:03.677Z,46.16
2019-03-31T02:26:29.678Z,46.15
2019-03-31T02:26:55.677Z,46.15
2019-03-31T02:27:21.682Z,46.14
2019-03-31T02:27:47.688Z,46.16
2019-03-31T02:28:13.688Z,46.15
2019-03-31T02:28:39.687Z,46.16
2019-03-31T02:29:05.685Z,46.15
2019-03-31T02:29:31.685Z,46.15
2019-03-31T02:29:57.687Z,46.14
2019-03-31T02:30:23.689Z,46.14
2019-03-31T02:30:49.691Z,46.14
2019-03-31T02:31:15.683Z,46.15
2019-03-31T02:31:41.685Z,46.16
2019-03-31T02:32:07.694Z,46.16
2019-03-31T02:32:33.685Z,46.15
2019-03-31T02:32:59.693Z,46.14
2019-03-31T02:33:25.704Z,46.15
2019-03-31T02:33:51.692Z,46.15
2019-03-31T02:34:17.705Z,46.14
2019-03-31T02:34:43.694Z,46.15
2019-03-31T02:35:09.763Z,46.14
2019-03-31T02:35:35.688Z,46.14
2019-03-31T02:36:01.693Z,46.14
2019-03-31T02:36:27.691Z,46.14
2019-03-31T02:36:53.697Z,46.14
2019-03-31T02:37:19.704Z,46.15
2019-03-31T02:37:45.771Z,46.16
2019-03-31T02:38:11.698Z,46.17
2019-03-31T02:38:37.694Z,46.16
2019-03-31T02:39:03.696Z,46.15
2019-03-31T02:39:29.701Z,46.16
2019-03-31T02:39:55.711Z,46.16
2019-03-31T02:40:21.770Z,46.16
2019-03-31T02:40:47.700Z,46.17
2019-03-31T02:41:13.703Z,46.17
2019-03-31T02:41:39.709Z,46.16
2019-03-31T02:42:05.735Z,46.17
2019-03-31T02:42:31.722Z,46.17
2019-03-31T02:42:57.780Z,46.17
2019-03-31T02:43:23.704Z,46.18
2019-03-31T02:43:49.719Z,46.17
2019-03-31T02:44:15.709Z,46.19
2019-03-31T02:44:41.708Z,46.16
2019-03-31T02:45:07.712Z,46.16
2019-03-31T02:45:33.784Z,46.16
2019-03-31T02:45:59.716Z,46.16
2019-03-31T02:46:25.706Z,46.16
2019-03-31T02:46:51.708Z,46.15
2019-03-31T02:47:17.713Z,46.16
2019-03-31T02:47:43.722Z,46.17
2019-03-31T02:48:09.853Z,46.17
2019-03-31T02:48:35.711Z,46.17
2019-03-31T02:49:01.716Z,46.17
2019-03-31T02:49:27.716Z,46.17
2019-03-31T02:49:53.711Z,46.17
2019-03-31T02:50:19.723Z,46.17
2019-03-31T02:50:45.796Z,46.17
2019-03-31T02:51:11.710Z,46.16
2019-03-31T02:51:37.713Z,46.16
2019-03-31T02:52:03.719Z,46.17
2019-03-31T02:52:29.721Z,46.17
2019-03-31T02:52:55.725Z,46.17
2019-03-31T02:53:21.788Z,46.17
2019-03-31T02:53:47.722Z,46.18
2019-03-31T02:54:13.742Z,46.18
2019-03-31T02:54:39.721Z,46.19
2019-03-31T02:55:05.721Z,46.18
2019-03-31T02:55:31.729Z,46.19
2019-03-31T02:55:57.810Z,46.19
2019-03-31T02:56:23.722Z,46.18
2019-03-31T02:56:49.728Z,46.18
2019-03-31T02:57:15.725Z,46.19
2019-03-31T02:57:41.727Z,46.2
2019-03-31T02:58:07.734Z,46.18
2019-03-31T02:58:33.864Z,46.2
2019-03-31T02:58:59.720Z,46.21
2019-03-31T02:59:25.724Z,46.19
2019-03-31T02:59:51.729Z,46.19
2019-03-31T03:00:17.731Z,46.2
2019-03-31T03:00:43.736Z,46.2
2019-03-31T03:01:10.088Z,46.2
2019-03-31T03:01:35.731Z,46.2
2019-03-31T03:02:01.727Z,46.21
2019-03-31T03:02:27.730Z,46.21
2019-03-31T03:02:53.736Z,46.2
2019-03-31T03:03:19.743Z,46.2
2019-03-31T03:03:45.804Z,46.19
2019-03-31T03:04:11.730Z,46.2
2019-03-31T03:04:37.734Z,46.21
2019-03-31T03:05:03.734Z,46.2
2019-03-31T03:05:29.738Z,46.2
2019-03-31T03:05:55.747Z,46.21
2019-03-31T03:06:21.811Z,46.2
2019-03-31T03:06:47.741Z,46.21
2019-03-31T03:07:13.737Z,46.21
2019-03-31T03:07:39.741Z,46.21
2019-03-31T03:08:06.028Z,46.21
2019-03-31T03:08:31.752Z,46.21
2019-03-31T03:08:57.819Z,46.22
2019-03-31T03:09:23.741Z,46.21
2019-03-31T03:09:49.746Z,46.21
2019-03-31T03:10:15.745Z,46.21
2019-03-31T03:10:41.742Z,46.21
2019-03-31T03:11:07.749Z,46.2
2019-03-31T03:11:33.837Z,46.22
2019-03-31T03:11:59.740Z,46.22
2019-03-31T03:12:25.750Z,46.22
2019-03-31T03:12:51.750Z,46.22
2019-03-31T03:13:17.755Z,46.21
2019-03-31T03:13:43.755Z,46.22
2019-03-31T03:14:09.823Z,46.22
2019-03-31T03:14:35.753Z,46.22
2019-03-31T03:15:01.745Z,46.21
2019-03-31T03:15:27.746Z,46.21
2019-03-31T03:15:53.753Z,46.22
2019-03-31T03:16:19.764Z,46.21
2019-03-31T03:16:45.820Z,46.23
2019-03-31T03:17:11.752Z,46.21
2019-03-31T03:17:37.755Z,46.22
2019-03-31T03:18:03.760Z,46.22
2019-03-31T03:18:29.750Z,46.22
2019-03-31T03:18:55.761Z,46.22
2019-03-31T03:19:21.823Z,46.23
2019-03-31T03:19:47.755Z,46.23
2019-03-31T03:20:13.755Z,46.21
2019-03-31T03:20:39.758Z,46.22
2019-03-31T03:21:05.765Z,46.23
2019-03-31T03:21:31.768Z,46.23
2019-03-31T03:21:57.848Z,46.22
2019-03-31T03:22:23.762Z,46.22
2019-03-31T03:22:49.769Z,46.23
2019-03-31T03:23:15.757Z,46.22
2019-03-31T03:23:41.763Z,46.23
2019-03-31T03:24:07.774Z,46.24
2019-03-31T03:24:33.839Z,46.24
2019-03-31T03:24:59.762Z,46.23
2019-03-31T03:25:25.768Z,46.24
2019-03-31T03:25:51.769Z,46.24
2019-03-31T03:26:17.762Z,46.24
2019-03-31T03:26:43.776Z,46.24
2019-03-31T03:27:09.834Z,46.25
2019-03-31T03:27:35.761Z,46.24
2019-03-31T03:28:01.767Z,46.25
2019-03-31T03:28:27.769Z,46.24
2019-03-31T03:28:53.769Z,46.24
2019-03-31T03:29:19.775Z,46.25
2019-03-31T03:29:45.838Z,46.23
2019-03-31T03:30:11.791Z,46.25
2019-03-31T03:30:37.776Z,46.24
2019-03-31T03:31:03.771Z,46.24
2019-03-31T03:31:29.773Z,46.24
2019-03-31T03:31:55.782Z,46.25
2019-03-31T03:32:21.843Z,46.25
2019-03-31T03:32:47.770Z,46.25
2019-03-31T03:33:13.781Z,46.24
2019-03-31T03:33:39.776Z,46.26
2019-03-31T03:34:05.775Z,46.25
2019-03-31T03:34:31.782Z,46.24
2019-03-31T03:34:57.857Z,46.24
2019-03-31T03:35:23.786Z,46.25
2019-03-31T03:35:49.777Z,46.25
2019-03-31T03:36:15.781Z,46.24
2019-03-31T03:36:41.780Z,46.25
2019-03-31T03:37:07.805Z,46.24
2019-03-31T03:37:33.860Z,46.25
2019-03-31T03:37:59.783Z,46.25
2019-03-31T03:38:25.782Z,46.26
2019-03-31T03:38:51.787Z,46.26
2019-03-31T03:39:17.786Z,46.27
2019-03-31T03:39:43.794Z,46.25
2019-03-31T03:40:09.852Z,46.26
2019-03-31T03:40:35.782Z,46.26
2019-03-31T03:41:02.117Z,46.26
2019-03-31T03:41:27.788Z,46.25
2019-03-31T03:41:53.785Z,46.26
2019-03-31T03:42:19.817Z,46.26
2019-03-31T03:42:45.863Z,46.26
2019-03-31T03:43:11.788Z,46.27
2019-03-31T03:43:37.792Z,46.28
2019-03-31T03:44:03.787Z,46.27
2019-03-31T03:44:29.791Z,46.28
2019-03-31T03:44:55.805Z,46.27
2019-03-31T03:45:21.859Z,46.27
2019-03-31T03:45:47.792Z,46.27
2019-03-31T03:46:13.797Z,46.27
2019-03-31T03:46:39.792Z,46.26
2019-03-31T03:47:05.794Z,46.26
2019-03-31T03:47:31.804Z,46.26
2019-03-31T03:47:57.876Z,46.28
2019-03-31T03:48:23.795Z,46.27
2019-03-31T03:48:49.796Z,46.28
2019-03-31T03:49:15.798Z,46.28
2019-03-31T03:49:41.798Z,46.28
2019-03-31T03:50:07.808Z,46.28
2019-03-31T03:50:33.876Z,46.27
2019-03-31T03:50:59.791Z,46.28
2019-03-31T03:51:25.803Z,46.28
2019-03-31T03:51:51.797Z,46.27
2019-03-31T03:52:17.802Z,46.27
2019-03-31T03:52:43.811Z,46.27
2019-03-31T03:53:09.872Z,46.28
2019-03-31T03:53:35.798Z,46.27
2019-03-31T03:54:01.803Z,46.29
2019-03-31T03:54:27.811Z,46.28
2019-03-31T03:54:53.804Z,46.29
2019-03-31T03:55:19.813Z,46.29
2019-03-31T03:55:45.879Z,46.29
2019-03-31T03:56:11.798Z,46.29
2019-03-31T03:56:37.802Z,46.29
2019-03-31T03:57:03.813Z,46.28
2019-03-31T03:57:29.806Z,46.29
2019-03-31T03:57:55.821Z,46.28
2019-03-31T03:58:21.877Z,46.29
2019-03-31T03:58:47.813Z,46.29
2019-03-31T03:59:13.813Z,46.29
2019-03-31T03:59:39.812Z,46.27
2019-03-31T04:00:05.816Z,46.29
2019-03-31T04:00:31.823Z,46.29
2019-03-31T04:00:57.896Z,46.28
2019-03-31T04:01:23.811Z,46.29
2019-03-31T04:01:49.825Z,46.28
2019-03-31T04:02:15.822Z,46.28
2019-03-31T04:02:41.815Z,46.29
2019-03-31T04:03:07.832Z,46.29
2019-03-31T04:03:33.901Z,46.3
2019-03-31T04:03:59.814Z,46.29
2019-03-31T04:04:25.818Z,46.29
2019-03-31T04:04:51.824Z,46.29
2019-03-31T04:05:17.826Z,46.27
2019-03-31T04:05:43.831Z,46.29
2019-03-31T04:06:09.894Z,46.28
2019-03-31T04:06:35.863Z,46.3
2019-03-31T04:07:01.820Z,46.3
2019-03-31T04:07:27.822Z,46.29
2019-03-31T04:07:53.825Z,46.29
2019-03-31T04:08:19.834Z,46.3
2019-03-31T04:08:45.891Z,46.3
2019-03-31T04:09:11.825Z,46.29
2019-03-31T04:09:37.824Z,46.3
2019-03-31T04:10:03.829Z,46.3
2019-03-31T04:10:29.825Z,46.3
2019-03-31T04:10:55.831Z,46.3
2019-03-31T04:11:21.905Z,46.3
2019-03-31T04:11:47.829Z,46.3
2019-03-31T04:12:13.830Z,46.3
2019-03-31T04:12:39.833Z,46.31
2019-03-31T04:13:05.833Z,46.3
2019-03-31T04:13:31.842Z,46.31
2019-03-31T04:13:57.908Z,46.3
2019-03-31T04:14:23.838Z,46.3
2019-03-31T04:14:49.842Z,46.31
2019-03-31T04:15:15.849Z,46.3
2019-03-31T04:15:41.834Z,46.32
2019-03-31T04:16:07.846Z,46.32
2019-03-31T04:16:33.924Z,46.31
2019-03-31T04:16:59.833Z,46.32
2019-03-31T04:17:25.838Z,46.33
2019-03-31T04:17:51.842Z,46.33
2019-03-31T04:18:17.841Z,46.33
2019-03-31T04:18:43.839Z,46.33
2019-03-31T04:19:09.836Z,46.33
2019-03-31T04:19:36.064Z,46.33
2019-03-31T04:20:01.831Z,46.33
2019-03-31T04:20:27.837Z,46.34
2019-03-31T04:20:53.843Z,46.33
2019-03-31T04:21:19.841Z,46.34
2019-03-31T04:21:45.837Z,46.33
2019-03-31T04:22:11.848Z,46.33
2019-03-31T04:22:37.848Z,46.34
2019-03-31T04:23:04.013Z,46.33
2019-03-31T04:23:29.843Z,46.33
2019-03-31T04:23:55.852Z,46.34
2019-03-31T04:24:21.844Z,46.34
2019-03-31T04:24:47.844Z,46.35
2019-03-31T04:25:13.846Z,46.35
2019-03-31T04:25:39.854Z,46.33
2019-03-31T04:26:05.853Z,46.35
2019-03-31T04:26:31.849Z,46.33
2019-03-31T04:26:57.997Z,46.35
2019-03-31T04:27:23.847Z,46.36
2019-03-31T04:27:49.851Z,46.35
2019-03-31T04:28:15.853Z,46.33
2019-03-31T04:28:41.855Z,46.36
2019-03-31T04:29:07.855Z,46.35
2019-03-31T04:29:33.902Z,46.35
2019-03-31T04:29:59.850Z,46.35
2019-03-31T04:30:25.850Z,46.33
2019-03-31T04:30:51.864Z,46.35
2019-03-31T04:31:17.857Z,46.33
2019-03-31T04:31:43.858Z,46.35
2019-03-31T04:32:09.856Z,46.35
2019-03-31T04:32:35.855Z,46.35
2019-03-31T04:33:01.858Z,46.35
2019-03-31T04:33:27.862Z,46.35
2019-03-31T04:33:53.859Z,46.35
2019-03-31T04:34:19.857Z,46.35
2019-03-31T04:34:45.857Z,46.33
2019-03-31T04:35:11.862Z,46.35
2019-03-31T04:35:37.864Z,46.35
2019-03-31T04:36:03.867Z,46.33
2019-03-31T04:36:29.866Z,46.35
2019-03-31T04:36:55.864Z,46.35
2019-03-31T04:37:21.862Z,46.33
2019-03-31T04:37:47.864Z,46.33
2019-03-31T04:38:13.869Z,46.33
2019-03-31T04:38:39.870Z,46.32
2019-03-31T04:39:05.867Z,46.33
2019-03-31T04:39:31.942Z,46.32
2019-03-31T04:39:57.872Z,46.34
2019-03-31T04:40:23.873Z,46.33
2019-03-31T04:40:49.868Z,46.33
2019-03-31T04:41:15.865Z,46.33
2019-03-31T04:41:41.875Z,46.34
2019-03-31T04:42:07.874Z,46.34
2019-03-31T04:42:33.874Z,46.33
2019-03-31T04:42:59.873Z,46.34
2019-03-31T04:43:25.868Z,46.34
2019-03-31T04:43:51.871Z,46.34
2019-03-31T04:44:17.875Z,46.34
2019-03-31T04:44:43.872Z,46.34
2019-03-31T04:45:09.870Z,46.35
2019-03-31T04:45:35.879Z,46.34
2019-03-31T04:46:01.878Z,46.35
2019-03-31T04:46:27.895Z,46.34
2019-03-31T04:46:53.878Z,46.35
2019-03-31T04:47:19.876Z,46.34
2019-03-31T04:47:45.876Z,46.35
2019-03-31T04:48:11.877Z,46.36
2019-03-31T04:48:37.883Z,46.35
2019-03-31T04:49:03.881Z,46.36
2019-03-31T04:49:29.881Z,46.35
2019-03-31T04:49:55.883Z,46.36
2019-03-31T04:50:21.879Z,46.36
2019-03-31T04:50:47.887Z,46.36
2019-03-31T04:51:13.891Z,46.36
2019-03-31T04:51:39.885Z,46.36
2019-03-31T04:52:05.886Z,46.36
2019-03-31T04:52:31.892Z,46.37
2019-03-31T04:52:57.888Z,46.37
2019-03-31T04:53:23.882Z,46.37
2019-03-31T04:53:49.888Z,46.38
2019-03-31T04:54:15.890Z,46.39
2019-03-31T04:54:41.889Z,46.38
2019-03-31T04:55:07.888Z,46.38
2019-03-31T04:55:33.886Z,46.38
2019-03-31T04:55:59.887Z,46.37
2019-03-31T04:56:25.888Z,46.39
2019-03-31T04:56:51.893Z,46.38
2019-03-31T04:57:17.894Z,46.38
2019-03-31T04:57:43.897Z,46.37
2019-03-31T04:58:09.887Z,46.38
2019-03-31T04:58:35.894Z,46.37
2019-03-31T04:59:01.895Z,46.37
2019-03-31T04:59:27.895Z,46.38
2019-03-31T04:59:53.906Z,46.38
2019-03-31T05:00:19.897Z,46.37
2019-03-31T05:00:45.894Z,46.38
2019-03-31T05:01:11.895Z,46.37
2019-03-31T05:01:37.899Z,46.37
2019-03-31T05:02:03.907Z,46.37
2019-03-31T05:02:29.901Z,46.37
2019-03-31T05:02:55.898Z,46.36
2019-03-31T05:03:21.900Z,46.38
2019-03-31T05:03:47.905Z,46.37
2019-03-31T05:04:13.899Z,46.36
2019-03-31T05:04:39.906Z,46.38
2019-03-31T05:05:05.917Z,46.38
2019-03-31T05:05:31.907Z,46.37
2019-03-31T05:05:57.904Z,46.38
2019-03-31T05:06:23.900Z,46.39
2019-03-31T05:06:49.911Z,46.38
2019-03-31T05:07:15.909Z,46.38
2019-03-31T05:07:41.905Z,46.38
2019-03-31T05:08:07.908Z,46.38
2019-03-31T05:08:33.906Z,46.38
2019-03-31T05:08:59.906Z,46.37
2019-03-31T05:09:25.906Z,46.36
2019-03-31T05:09:51.912Z,46.38
2019-03-31T05:10:17.910Z,46.38
2019-03-31T05:10:43.910Z,46.38
2019-03-31T05:11:09.908Z,46.39
2019-03-31T05:11:35.916Z,46.38
2019-03-31T05:12:01.904Z,46.39
2019-03-31T05:12:27.910Z,46.38
2019-03-31T05:12:53.914Z,46.39
2019-03-31T05:13:19.919Z,46.4
2019-03-31T05:13:45.913Z,46.38
2019-03-31T05:14:11.913Z,46.4
2019-03-31T05:14:37.912Z,46.38
2019-03-31T05:15:03.915Z,46.38
2019-03-31T05:15:29.920Z,46.38
2019-03-31T05:15:55.916Z,46.39
2019-03-31T05:16:21.922Z,46.38
2019-03-31T05:16:47.920Z,46.4
2019-03-31T05:17:13.918Z,46.38
2019-03-31T05:17:39.923Z,46.39
2019-03-31T05:18:05.924Z,46.39
2019-03-31T05:18:31.924Z,46.39
2019-03-31T05:18:57.922Z,46.4
2019-03-31T05:19:23.921Z,46.4
2019-03-31T05:19:49.925Z,46.4
2019-03-31T05:20:15.959Z,46.41
2019-03-31T05:20:41.924Z,46.4
2019-03-31T05:21:07.925Z,46.42
2019-03-31T05:21:33.921Z,46.42
2019-03-31T05:21:59.922Z,46.41
2019-03-31T05:22:25.927Z,46.42
2019-03-31T05:22:51.931Z,46.42
2019-03-31T05:23:17.928Z,46.42
2019-03-31T05:23:43.930Z,46.42
2019-03-31T05:24:09.928Z,46.43
2019-03-31T05:24:35.934Z,46.42
2019-03-31T05:25:01.928Z,46.41
2019-03-31T05:25:27.937Z,46.42
2019-03-31T05:25:53.931Z,46.41
2019-03-31T05:26:19.940Z,46.42
2019-03-31T05:26:45.931Z,46.41
2019-03-31T05:27:11.934Z,46.41
2019-03-31T05:27:37.942Z,46.42
2019-03-31T05:28:03.936Z,46.42
2019-03-31T05:28:29.937Z,46.41
2019-03-31T05:28:55.939Z,46.41
2019-03-31T05:29:21.933Z,46.41
2019-03-31T05:29:48.016Z,46.41
2019-03-31T05:30:13.944Z,46.41
2019-03-31T05:30:39.944Z,46.4
2019-03-31T05:31:05.945Z,46.42
2019-03-31T05:31:31.936Z,46.42
2019-03-31T05:31:57.949Z,46.41
2019-03-31T05:32:24.020Z,46.41
2019-03-31T05:32:49.939Z,46.42
2019-03-31T05:33:15.940Z,46.41
2019-03-31T05:33:41.946Z,46.41
2019-03-31T05:34:07.952Z,46.41
2019-03-31T05:34:33.959Z,46.42
2019-03-31T05:35:00.017Z,46.42
2019-03-31T05:35:25.946Z,46.41